createdAt,value
2019-03-23T00:01:23.437Z,5.99
2019-03-23T00:03:53.884Z,5.99
2019-03-23T00:06:30.713Z,6.11
2019-03-23T00:08:55.996Z,6.44
2019-03-23T00:11:26.983Z,6.27
2019-03-23T00:13:56.974Z,6.26
2019-03-23T00:16:27.873Z,6.16
2019-03-23T00:18:57.974Z,6.10
2019-03-23T00:21:28.165Z,6.01
2019-03-23T00:23:58.590Z,5.94
2019-03-23T00:26:28.861Z,5.39
2019-03-23T00:28:58.960Z,5.39
2019-03-23T00:31:29.082Z,5.52
2019-03-23T00:33:59.116Z,5.41
2019-03-23T00:36:29.958Z,5.49
2019-03-23T00:39:00.981Z,5.49
2019-03-23T00:41:30.991Z,5.51
2019-03-23T00:44:00.983Z,5.53
2019-03-23T00:46:31.025Z,5.62
2019-03-23T00:51:44.717Z,5.85
2019-03-23T00:54:14.925Z,5.65
2019-03-23T00:56:45.034Z,5.61
2019-03-23T00:59:15.066Z,5.58
2019-03-23T01:01:45.572Z,5.61
2019-03-23T01:04:16.109Z,5.49
2019-03-23T01:06:52.002Z,5.35
2019-03-23T01:09:18.907Z,5.49
2019-03-23T01:11:49.110Z,5.51
2019-03-23T01:14:19.573Z,5.34
2019-03-23T01:16:49.381Z,5.21
2019-03-23T01:19:19.924Z,5.21
2019-03-23T01:21:50.293Z,5.31
2019-03-23T01:24:20.751Z,5.20
2019-03-23T01:26:52.004Z,5.36
2019-03-23T01:29:21.937Z,5.18
2019-03-23T01:31:51.976Z,5.03
2019-03-23T01:34:21.935Z,5.13
2019-03-23T01:37:02.264Z,5.13
2019-03-23T01:39:24.894Z,5.09
2019-03-23T01:41:55.048Z,5.09
2019-03-23T01:44:25.725Z,5.21
2019-03-23T01:46:54.811Z,5.24
2019-03-23T01:49:24.896Z,5.02
2019-03-23T01:51:55.077Z,4.85
2019-03-23T01:54:25.591Z,4.83
2019-03-23T01:56:55.857Z,4.68
2019-03-23T01:59:25.885Z,4.68
2019-03-23T02:01:56.389Z,4.78
2019-03-23T02:04:28.037Z,4.69
2019-03-23T02:06:58.120Z,4.81
2019-03-23T02:09:28.590Z,4.82
2019-03-23T02:11:59.113Z,4.66
2019-03-23T02:14:29.110Z,4.66
2019-03-23T02:16:59.555Z,4.86
2019-03-23T02:19:29.728Z,5.08
2019-03-23T02:21:59.771Z,4.97
2019-03-23T02:24:28.907Z,4.54
2019-03-23T02:27:00.006Z,4.29
2019-03-23T02:29:31.565Z,4.16
2019-03-23T02:32:01.864Z,3.66
2019-03-23T02:34:32.338Z,3.66
2019-03-23T02:37:02.959Z,3.77
2019-03-23T02:39:33.575Z,3.49
2019-03-23T02:42:03.897Z,3.75
2019-03-23T02:47:17.617Z,3.76
2019-03-23T02:49:47.983Z,3.65
2019-03-23T02:52:18.807Z,3.65
2019-03-23T02:54:48.923Z,3.57
2019-03-23T02:57:18.963Z,3.49
2019-03-23T02:59:48.909Z,3.23
2019-03-23T03:02:19.436Z,3.31
2019-03-23T03:04:49.956Z,3.67
2019-03-23T03:07:20.130Z,3.88
2019-03-23T03:09:50.545Z,3.95
2019-03-23T03:12:20.885Z,3.61
2019-03-23T03:14:50.922Z,3.76
2019-03-23T03:17:22.058Z,3.73
2019-03-23T03:19:52.447Z,3.57
2019-03-23T03:22:22.710Z,3.75
2019-03-23T03:24:51.983Z,3.83
2019-03-23T03:27:22.699Z,3.83
2019-03-23T03:29:52.945Z,3.77
2019-03-23T03:32:23.029Z,3.77
2019-03-23T03:34:53.694Z,3.73
2019-03-23T03:38:10.708Z,3.79
2019-03-23T03:40:40.300Z,3.45
2019-03-23T03:43:10.683Z,3.38
2019-03-23T03:45:40.881Z,3.68
2019-03-23T03:48:10.966Z,3.68
2019-03-23T03:50:40.958Z,3.53
2019-03-23T03:53:10.949Z,3.64
2019-03-23T03:55:41.092Z,3.49
2019-03-23T03:58:11.582Z,3.44
2019-03-23T04:00:42.474Z,3.36
2019-03-23T04:03:12.939Z,3.16
2019-03-23T04:05:42.972Z,3.16
2019-03-23T04:08:13.555Z,3.19
2019-03-23T04:10:44.002Z,3.36
2019-03-23T04:13:14.035Z,3.36
2019-03-23T04:15:44.568Z,3.31
2019-03-23T04:18:14.985Z,3.22
2019-03-23T04:20:44.913Z,3.30
2019-03-23T04:23:15.422Z,3.74
2019-03-23T04:25:45.758Z,3.72
2019-03-23T04:28:16.122Z,3.40
2019-03-23T04:30:48.570Z,3.33
2019-03-23T04:33:18.738Z,3.27
2019-03-23T04:35:49.223Z,3.18
2019-03-23T04:38:23.008Z,3.26
2019-03-23T04:40:52.161Z,3.28
2019-03-23T04:43:22.521Z,3.28
2019-03-23T04:45:52.916Z,3.57
2019-03-23T04:51:05.918Z,3.52
2019-03-23T04:53:36.041Z,3.59
2019-03-23T04:56:06.395Z,3.38
2019-03-23T04:58:36.687Z,3.16
2019-03-23T05:01:06.923Z,2.75
2019-03-23T05:03:37.487Z,2.75
2019-03-23T05:06:07.690Z,2.90
2019-03-23T05:08:37.907Z,2.42
2019-03-23T05:11:08.035Z,2.42
2019-03-23T05:13:38.434Z,2.42
2019-03-23T05:16:08.999Z,2.39
2019-03-23T05:18:39.619Z,2.58
2019-03-23T05:21:09.873Z,2.69
2019-03-23T05:23:41.762Z,2.69
2019-03-23T05:26:13.126Z,2.68
2019-03-23T05:28:43.570Z,2.82
2019-03-23T05:31:14.039Z,3.12
2019-03-23T05:33:44.990Z,3.12
2019-03-23T05:36:15.471Z,3.05
2019-03-23T05:38:45.825Z,3.35
2019-03-23T05:41:15.998Z,3.37
2019-03-23T05:43:46.059Z,3.26
2019-03-23T05:46:16.387Z,3.17
2019-03-23T05:48:46.701Z,2.92
2019-03-23T05:51:17.904Z,2.82
2019-03-23T05:53:47.927Z,3.11
2019-03-23T05:56:18.122Z,3.42
2019-03-23T05:58:48.831Z,3.36
2019-03-23T06:01:18.930Z,3.29
2019-03-23T06:03:48.981Z,3.56
2019-03-23T06:06:19.443Z,3.87
2019-03-23T06:08:55.006Z,4.18
2019-03-23T06:11:23.481Z,4.23
2019-03-23T06:13:53.884Z,4.35
2019-03-23T06:16:23.953Z,4.60
2019-03-23T06:18:54.297Z,4.74
2019-03-23T06:21:24.912Z,4.87
2019-03-23T06:23:54.972Z,5.12
2019-03-23T06:26:25.553Z,5.35
2019-03-23T06:28:55.944Z,5.34
2019-03-23T06:31:25.910Z,5.40
2019-03-23T06:33:55.945Z,5.53
2019-03-23T06:36:26.035Z,5.20
2019-03-23T06:39:05.009Z,5.55
2019-03-23T06:41:28.939Z,6.17
2019-03-23T06:43:59.780Z,6.17
2019-03-23T06:46:29.270Z,6.52
2019-03-23T06:49:00.298Z,6.93
2019-03-23T06:51:31.056Z,7.31
2019-03-23T06:54:02.432Z,7.64
2019-03-23T06:56:32.726Z,7.60
2019-03-23T06:59:02.566Z,7.70
2019-03-23T07:01:33.426Z,8.19
2019-03-23T07:04:03.934Z,8.19
2019-03-23T07:06:34.753Z,8.19
2019-03-23T07:09:15.497Z,8.33
2019-03-23T07:11:38.060Z,8.72
2019-03-23T07:14:08.825Z,9.30
2019-03-23T07:16:39.036Z,11.43
2019-03-23T07:19:09.567Z,13.88
2019-03-23T07:21:39.967Z,16.72
2019-03-23T07:24:10.562Z,18.75
2019-03-23T07:26:39.917Z,20.31
2019-03-23T07:29:10.136Z,20.31
2019-03-23T07:31:40.394Z,20.67
2019-03-23T07:34:10.841Z,22.05
2019-03-23T07:36:41.070Z,23.09
2019-03-23T07:39:11.410Z,22.29
2019-03-23T07:41:41.724Z,19.70
2019-03-23T07:44:11.251Z,18.91
2019-03-23T07:46:41.562Z,17.78
2019-03-23T07:49:11.942Z,19.66
2019-03-23T07:51:42.413Z,19.66
2019-03-23T07:54:11.959Z,22.14
2019-03-23T07:56:42.461Z,22.14
2019-03-23T07:59:27.778Z,24.12
2019-03-23T08:01:59.575Z,23.33
2019-03-23T08:04:29.917Z,24.25
2019-03-23T08:06:59.938Z,24.25
2019-03-23T08:09:37.640Z,24.92
2019-03-23T08:12:01.964Z,26.81
2019-03-23T08:14:32.109Z,28.47
2019-03-23T08:17:02.612Z,29.73
2019-03-23T08:19:31.948Z,29.33
2019-03-23T08:22:02.508Z,30.84
2019-03-23T08:24:32.863Z,30.39
2019-03-23T08:27:02.890Z,29.73
2019-03-23T08:29:33.286Z,27.31
2019-03-23T08:32:04.971Z,28.22
2019-03-23T08:34:35.502Z,28.68
2019-03-23T08:37:06.160Z,28.86
2019-03-23T08:39:36.542Z,29.14
2019-03-23T08:42:07.009Z,30.41
2019-03-23T08:44:37.091Z,30.41
2019-03-23T08:47:07.721Z,29.48
2019-03-23T08:49:38.285Z,30.23
2019-03-23T08:52:10.388Z,29.82
2019-03-23T08:54:40.757Z,31.20
2019-03-23T08:57:09.877Z,32.16
2019-03-23T08:59:41.002Z,32.90
2019-03-23T09:02:10.992Z,32.03
2019-03-23T09:04:41.297Z,32.00
2019-03-23T09:07:11.571Z,31.16
2019-03-23T09:09:40.810Z,33.58
2019-03-23T09:12:12.882Z,33.58
2019-03-23T09:14:42.923Z,31.74
2019-03-23T09:17:13.609Z,33.18
2019-03-23T09:19:43.833Z,33.76
2019-03-23T09:22:14.075Z,33.76
2019-03-23T09:24:44.429Z,33.93
2019-03-23T09:27:14.950Z,35.12
2019-03-23T09:29:48.025Z,35.21
2019-03-23T09:32:18.579Z,35.91
2019-03-23T09:34:48.940Z,35.69
2019-03-23T09:37:19.299Z,35.69
2019-03-23T09:39:49.723Z,35.84
2019-03-23T09:42:19.348Z,35.64
2019-03-23T09:44:49.730Z,36.64
2019-03-23T09:47:19.505Z,36.37
2019-03-23T09:49:50.043Z,34.94
2019-03-23T09:52:23.528Z,35.82
2019-03-23T09:54:54.921Z,36.43
2019-03-23T09:57:24.989Z,37.29
2019-03-23T09:59:54.960Z,35.40
2019-03-23T10:02:25.761Z,36.64
2019-03-23T10:04:55.937Z,37.10
2019-03-23T10:07:26.054Z,37.57
2019-03-23T10:09:57.547Z,37.84
2019-03-23T10:12:26.953Z,38.36
2019-03-23T10:14:57.458Z,38.36
2019-03-23T10:17:27.751Z,38.22
2019-03-23T10:19:56.902Z,37.95
2019-03-23T10:22:27.066Z,37.28
2019-03-23T10:24:57.717Z,37.80
2019-03-23T10:27:29.112Z,38.41
2019-03-23T10:29:59.947Z,39.73
2019-03-23T10:32:29.999Z,40.39
2019-03-23T10:35:01.570Z,39.77
2019-03-23T10:37:32.908Z,38.05
2019-03-23T10:40:03.488Z,38.05
2019-03-23T10:42:33.941Z,38.66
2019-03-23T10:45:07.131Z,39.58
2019-03-23T10:47:37.723Z,40.19
2019-03-23T10:50:08.547Z,40.84
2019-03-23T10:52:38.826Z,40.70
2019-03-23T10:55:09.000Z,41.19
2019-03-23T10:57:39.129Z,41.13
2019-03-23T11:00:10.448Z,41.20
2019-03-23T11:02:39.935Z,40.09
2019-03-23T11:05:10.739Z,38.49
2019-03-23T11:07:40.937Z,39.30
2019-03-23T11:10:11.971Z,40.23
2019-03-23T11:12:43.123Z,39.85
2019-03-23T11:15:13.658Z,38.72
2019-03-23T11:17:42.871Z,39.82
2019-03-23T11:20:13.913Z,40.31
2019-03-23T11:22:43.961Z,40.61
2019-03-23T11:25:15.296Z,39.82
2019-03-23T11:27:45.553Z,39.01
2019-03-23T11:30:16.033Z,38.33
2019-03-23T11:32:46.567Z,38.42
2019-03-23T11:35:16.914Z,37.91
2019-03-23T11:37:47.145Z,39.01
2019-03-23T11:40:17.740Z,39.14
2019-03-23T11:42:50.279Z,38.88
2019-03-23T11:45:17.843Z,38.90
2019-03-23T11:47:47.958Z,38.62
2019-03-23T11:50:19.577Z,38.78
2019-03-23T11:52:49.943Z,38.10
2019-03-23T11:55:21.887Z,38.10
2019-03-23T11:57:51.997Z,37.97
2019-03-23T12:00:22.323Z,38.13
2019-03-23T12:02:52.753Z,37.57
2019-03-23T12:05:21.886Z,37.82
2019-03-23T12:07:52.064Z,36.62
2019-03-23T12:10:28.301Z,35.49
2019-03-23T12:12:58.743Z,35.75
2019-03-23T12:15:29.816Z,35.23
2019-03-23T12:18:00.933Z,34.57
2019-03-23T12:20:32.964Z,33.55
2019-03-23T12:23:02.933Z,34.82
2019-03-23T12:25:34.761Z,34.28
2019-03-23T12:28:05.049Z,33.88
2019-03-23T12:30:35.809Z,34.13
2019-03-23T12:33:08.068Z,34.19
2019-03-23T12:35:41.042Z,34.26
2019-03-23T12:38:11.419Z,33.06
2019-03-23T12:40:42.869Z,34.02
2019-03-23T12:43:12.947Z,34.75
2019-03-23T12:45:43.061Z,35.43
2019-03-23T12:48:13.567Z,35.91
2019-03-23T12:50:45.871Z,35.97
2019-03-23T12:53:15.972Z,35.20
2019-03-23T12:55:45.971Z,35.32
2019-03-23T12:58:16.072Z,35.00
2019-03-23T13:00:46.581Z,33.81
2019-03-23T13:03:16.910Z,34.41
2019-03-23T13:05:48.063Z,34.41
2019-03-23T13:08:18.956Z,34.43
2019-03-23T13:10:48.983Z,33.55
2019-03-23T13:13:19.294Z,33.49
2019-03-23T13:15:49.728Z,32.91
2019-03-23T13:18:27.086Z,31.74
2019-03-23T13:20:52.294Z,30.66
2019-03-23T13:25:21.008Z,28.18
2019-03-23T13:27:51.593Z,29.00
2019-03-23T13:30:22.451Z,27.65
2019-03-23T13:32:52.832Z,27.65
2019-03-23T13:35:22.986Z,27.67
2019-03-23T13:37:54.605Z,28.30
2019-03-23T13:40:24.039Z,28.36
2019-03-23T13:42:54.287Z,28.45
2019-03-23T13:45:24.742Z,27.88
2019-03-23T13:47:54.935Z,27.02
2019-03-23T13:50:37.920Z,28.24
2019-03-23T13:53:10.510Z,28.47
2019-03-23T13:55:43.797Z,29.29
2019-03-23T13:58:15.066Z,29.17
2019-03-23T14:00:45.722Z,27.71
2019-03-23T14:03:15.901Z,26.56
2019-03-23T14:05:45.997Z,26.19
2019-03-23T14:08:16.309Z,27.42
2019-03-23T14:10:49.161Z,27.23
2019-03-23T14:13:19.458Z,27.40
2019-03-23T14:15:50.032Z,27.08
2019-03-23T14:18:21.869Z,26.83
2019-03-23T14:20:52.091Z,26.32
2019-03-23T14:23:23.294Z,25.75
2019-03-23T14:25:53.727Z,26.00
2019-03-23T14:28:23.587Z,25.53
2019-03-23T14:30:53.894Z,23.72
2019-03-23T14:33:24.488Z,23.72
2019-03-23T14:35:54.982Z,21.32
2019-03-23T14:38:25.596Z,21.32
2019-03-23T14:40:55.920Z,21.60
2019-03-23T14:43:26.418Z,21.60
2019-03-23T14:45:56.807Z,20.43
2019-03-23T14:48:26.913Z,19.92
2019-03-23T14:50:56.980Z,19.91
2019-03-23T14:53:27.545Z,20.36
2019-03-23T14:55:57.706Z,20.48
2019-03-23T14:58:26.789Z,20.42
2019-03-23T15:00:57.371Z,20.69
2019-03-23T15:03:27.726Z,21.18
2019-03-23T15:05:56.865Z,21.71
2019-03-23T15:08:27.727Z,21.85
2019-03-23T15:10:56.914Z,21.81
2019-03-23T15:13:27.086Z,21.47
2019-03-23T15:15:57.446Z,21.87
2019-03-23T15:18:29.269Z,21.33
2019-03-23T15:20:59.736Z,20.90
2019-03-23T15:23:28.826Z,20.73
2019-03-23T15:25:59.037Z,20.87
2019-03-23T15:28:29.752Z,21.04
2019-03-23T15:30:58.928Z,21.44
2019-03-23T15:33:28.990Z,21.38
2019-03-23T15:35:58.999Z,21.34
2019-03-23T15:38:29.695Z,21.19
2019-03-23T15:40:59.955Z,19.82
2019-03-23T15:43:30.149Z,19.82
2019-03-23T15:46:01.294Z,19.53
2019-03-23T15:48:31.933Z,19.91
2019-03-23T15:51:02.172Z,19.22
2019-03-23T15:53:33.013Z,19.94
2019-03-23T15:56:03.561Z,19.88
2019-03-23T15:58:33.361Z,19.46
2019-03-23T16:01:02.913Z,19.67
2019-03-23T16:03:33.135Z,20.15
2019-03-23T16:06:03.981Z,20.45
2019-03-23T16:08:33.986Z,20.71
2019-03-23T16:11:04.483Z,20.66
2019-03-23T16:13:34.947Z,20.52
2019-03-23T16:16:05.048Z,20.52
2019-03-23T16:18:36.056Z,20.34
2019-03-23T16:21:06.566Z,19.85
2019-03-23T16:23:37.461Z,19.51
2019-03-23T16:26:07.926Z,19.85
2019-03-23T16:28:38.283Z,19.96
2019-03-23T16:31:08.615Z,20.16
2019-03-23T16:33:37.819Z,20.19
2019-03-23T16:36:08.908Z,19.49
2019-03-23T16:38:39.033Z,19.39
2019-03-23T16:41:11.979Z,19.12
2019-03-23T16:43:42.173Z,19.41
2019-03-23T16:46:12.717Z,18.83
2019-03-23T16:48:43.131Z,18.98
2019-03-23T16:51:13.591Z,18.73
2019-03-23T16:53:44.028Z,18.37
2019-03-23T16:56:14.947Z,18.37
2019-03-23T16:58:45.217Z,18.22
2019-03-23T17:01:51.712Z,18.39
2019-03-23T17:04:24.297Z,18.37
2019-03-23T17:06:55.716Z,18.26
2019-03-23T17:09:24.908Z,18.24
2019-03-23T17:11:55.451Z,18.12
2019-03-23T17:14:26.112Z,17.87
2019-03-23T17:16:56.577Z,17.76
2019-03-23T17:19:27.164Z,17.37
2019-03-23T17:21:57.603Z,17.37
2019-03-23T17:24:26.987Z,17.35
2019-03-23T17:26:57.906Z,17.17
2019-03-23T17:29:28.564Z,17.01
2019-03-23T17:31:59.123Z,16.88
2019-03-23T17:34:29.920Z,16.88
2019-03-23T17:37:00.565Z,16.72
2019-03-23T17:39:31.515Z,16.54
2019-03-23T17:42:01.256Z,16.47
2019-03-23T17:44:32.176Z,16.41
2019-03-23T17:47:03.123Z,16.06
2019-03-23T17:49:34.042Z,15.93
2019-03-23T17:52:05.035Z,15.84
2019-03-23T17:54:37.287Z,15.80
2019-03-23T17:57:07.750Z,15.75
2019-03-23T17:59:38.085Z,15.64
2019-03-23T18:02:08.884Z,15.43
2019-03-23T18:04:39.083Z,15.32
2019-03-23T18:07:09.567Z,15.26
2019-03-23T18:09:39.971Z,15.08
2019-03-23T18:12:10.737Z,15.08
2019-03-23T18:14:39.909Z,15.04
2019-03-23T18:17:10.124Z,14.85
2019-03-23T18:19:41.042Z,14.76
2019-03-23T18:22:11.803Z,14.66
2019-03-23T18:24:42.099Z,14.66
2019-03-23T18:27:12.585Z,14.56
2019-03-23T18:29:42.943Z,14.29
2019-03-23T18:32:13.570Z,14.29
2019-03-23T18:34:44.071Z,13.83
2019-03-23T18:37:14.806Z,13.83
2019-03-23T18:39:44.981Z,13.86
2019-03-23T18:42:15.989Z,13.83
2019-03-23T18:44:46.506Z,13.83
2019-03-23T18:47:16.983Z,13.70
2019-03-23T18:49:47.641Z,13.73
2019-03-23T18:52:17.506Z,13.44
2019-03-23T18:54:47.514Z,13.44
2019-03-23T18:57:18.032Z,13.12
2019-03-23T18:59:50.096Z,13.12
2019-03-23T19:02:20.741Z,12.92
2019-03-23T19:04:51.960Z,12.78
2019-03-23T19:07:22.110Z,12.56
2019-03-23T19:09:52.736Z,12.36
2019-03-23T19:12:23.324Z,12.50
2019-03-23T19:14:56.541Z,12.58
2019-03-23T19:17:27.163Z,12.41
2019-03-23T19:19:58.299Z,12.41
2019-03-23T19:22:28.991Z,12.21
2019-03-23T19:25:00.496Z,12.44
2019-03-23T19:27:31.149Z,12.34
2019-03-23T19:30:01.611Z,12.21
2019-03-23T19:32:30.895Z,12.13
2019-03-23T19:35:01.142Z,12.09
2019-03-23T19:37:31.728Z,11.94
2019-03-23T19:40:00.908Z,11.71
2019-03-23T19:42:31.015Z,11.52
2019-03-23T19:45:01.771Z,11.34
2019-03-23T19:47:32.731Z,11.23
2019-03-23T19:50:01.989Z,11.16
2019-03-23T19:52:33.992Z,11.14
2019-03-23T19:55:04.533Z,11.17
2019-03-23T19:57:34.910Z,11.20
2019-03-23T20:00:06.318Z,11.12
2019-03-23T20:02:36.734Z,11.02
2019-03-23T20:05:06.026Z,10.83
2019-03-23T20:07:36.558Z,10.90
2019-03-23T20:10:08.117Z,10.91
2019-03-23T20:12:38.726Z,11.02
2019-03-23T20:15:10.249Z,11.04
2019-03-23T20:17:40.833Z,10.81
2019-03-23T20:20:12.330Z,10.67
2019-03-23T20:22:43.427Z,10.57
2019-03-23T20:25:14.152Z,10.46
2019-03-23T20:27:45.016Z,10.24
2019-03-23T20:30:17.923Z,10.13
2019-03-23T20:32:48.125Z,9.94
2019-03-23T20:35:18.616Z,9.97
2019-03-23T20:37:47.866Z,9.90
2019-03-23T20:40:18.507Z,10.02
2019-03-23T20:42:51.508Z,9.91
2019-03-23T20:45:31.069Z,9.81
2019-03-23T20:48:19.979Z,9.81
2019-03-23T20:50:51.310Z,9.92
2019-03-23T20:53:22.583Z,10.03
2019-03-23T20:55:53.874Z,9.69
2019-03-23T20:58:24.852Z,9.69
2019-03-23T21:00:55.325Z,9.65
2019-03-23T21:03:26.437Z,9.39
2019-03-23T21:05:57.076Z,9.57
2019-03-23T21:08:28.016Z,9.63
2019-03-23T21:10:58.962Z,9.54
2019-03-23T21:13:29.927Z,9.41
2019-03-23T21:16:07.141Z,9.37
2019-03-23T21:18:40.541Z,9.35
2019-03-23T21:21:13.357Z,9.19
2019-03-23T21:23:52.236Z,9.19
2019-03-23T21:26:24.381Z,9.14
2019-03-23T21:29:05.443Z,9.12
2019-03-23T21:31:36.431Z,9.12
2019-03-23T21:34:07.298Z,8.89
2019-03-23T21:36:38.869Z,9.08
2019-03-23T21:39:09.572Z,8.97
2019-03-23T21:41:40.781Z,9.07
2019-03-23T21:44:11.734Z,9.06
2019-03-23T21:46:41.076Z,9.04
2019-03-23T21:49:11.578Z,9.03
2019-03-23T21:51:42.053Z,9.05
2019-03-23T21:54:13.956Z,9.05
2019-03-23T21:56:45.306Z,9.14
2019-03-23T21:59:16.711Z,9.01
2019-03-23T22:01:46.941Z,9.06
2019-03-23T22:04:18.629Z,9.00
2019-03-23T22:06:48.574Z,8.86
2019-03-23T22:09:19.145Z,8.84
2019-03-23T22:11:50.012Z,8.84
2019-03-23T22:14:21.770Z,8.88
2019-03-23T22:16:51.023Z,9.08
2019-03-23T22:19:22.412Z,8.92
2019-03-23T22:21:53.004Z,8.66
2019-03-23T22:24:23.996Z,8.56
2019-03-23T22:26:54.876Z,8.65
2019-03-23T22:29:25.784Z,8.66
2019-03-23T22:31:56.284Z,8.51
2019-03-23T22:34:26.891Z,8.17
2019-03-23T22:36:58.015Z,8.18
2019-03-23T22:39:28.249Z,8.14
2019-03-23T22:41:59.027Z,8.02
2019-03-23T22:44:29.742Z,7.99
2019-03-23T22:46:59.111Z,7.75
2019-03-23T22:49:29.953Z,7.62
2019-03-23T22:52:00.689Z,7.75
2019-03-23T22:54:33.709Z,7.75
2019-03-23T22:57:04.445Z,7.75
2019-03-23T22:59:35.310Z,7.62
2019-03-23T23:02:06.134Z,7.67
2019-03-23T23:04:38.044Z,7.76
2019-03-23T23:07:08.979Z,7.74
2019-03-23T23:09:40.062Z,7.80
2019-03-23T23:12:11.309Z,7.59
2019-03-23T23:14:43.967Z,7.89
2019-03-23T23:17:16.606Z,7.87
2019-03-23T23:19:47.327Z,7.86
2019-03-23T23:22:18.083Z,7.67
2019-03-23T23:24:49.831Z,7.76
2019-03-23T23:27:23.314Z,7.83
2019-03-23T23:29:53.961Z,7.86
2019-03-23T23:32:24.052Z,7.84
2019-03-23T23:34:54.852Z,7.59
2019-03-23T23:37:26.163Z,7.41
2019-03-23T23:39:56.660Z,7.04
2019-03-23T23:42:29.110Z,6.94
2019-03-23T23:44:59.932Z,6.96
2019-03-23T23:47:30.139Z,6.87
2019-03-23T23:50:00.973Z,6.56
2019-03-23T23:52:31.330Z,6.73
2019-03-23T23:55:02.030Z,6.67
2019-03-23T23:57:32.686Z,6.81
